sensor_id;sensor_type;location;lat;lon;timestamp;P1;durP1;ratioP1;P2;durP2;ratioP2
8652;SDS011;4364;52.426;9.424;2024-03-23T00:53:13;18.27;;;10.07;;
8652;SDS011;4364;52.426;9.424;2024-03-23T00:55:43;20.57;;;10.83;;
8652;SDS011;4364;52.426;9.424;2024-03-23T00:58:09;21.23;;;11.17;;
8652;SDS011;4364;52.426;9.424;2024-03-23T01:00:34;18.77;;;9.80;;
8652;SDS011;4364;52.426;9.424;2024-03-23T01:03:01;19.23;;;10.30;;
8652;SDS011;4364;52.426;9.424;2024-03-23T01:05:27;19.43;;;9.83;;
8652;SDS011;4364;52.426;9.424;2024-03-23T01:07:53;23.37;;;9.80;;
8652;SDS011;4364;52.426;9.424;2024-03-23T01:10:18;19.13;;;9.50;;
8652;SDS011;4364;52.426;9.424;2024-03-23T01:12:44;19.50;;;9.97;;
8652;SDS011;4364;52.426;9.424;2024-03-23T01:15:09;21.97;;;9.43;;
8652;SDS011;4364;52.426;9.424;2024-03-23T01:17:35;22.23;;;10.07;;
8652;SDS011;4364;52.426;9.424;2024-03-23T01:20:01;22.97;;;9.40;;
8652;SDS011;4364;52.426;9.424;2024-03-23T01:22:27;21.20;;;9.47;;
8652;SDS011;4364;52.426;9.424;2024-03-23T01:24:53;20.00;;;10.60;;
8652;SDS011;4364;52.426;9.424;2024-03-23T01:27:18;23.53;;;10.30;;
8652;SDS011;4364;52.426;9.424;2024-03-23T01:29:44;20.97;;;9.60;;
8652;SDS011;4364;52.426;9.424;2024-03-23T01:32:10;17.67;;;8.60;;
8652;SDS011;4364;52.426;9.424;2024-03-23T01:34:35;20.03;;;9.00;;
8652;SDS011;4364;52.426;9.424;2024-03-23T01:37:01;21.27;;;8.83;;
8652;SDS011;4364;52.426;9.424;2024-03-23T01:39:27;21.00;;;9.27;;
8652;SDS011;4364;52.426;9.424;2024-03-23T01:41:52;21.50;;;9.37;;
8652;SDS011;4364;52.426;9.424;2024-03-23T01:44:18;17.33;;;8.57;;
8652;SDS011;4364;52.426;9.424;2024-03-23T01:46:44;17.47;;;9.07;;
8652;SDS011;4364;52.426;9.424;2024-03-23T01:49:10;19.93;;;9.23;;
8652;SDS011;4364;52.426;9.424;2024-03-23T01:51:36;19.47;;;8.90;;
8652;SDS011;4364;52.426;9.424;2024-03-23T01:54:02;27.33;;;10.60;;
8652;SDS011;4364;52.426;9.424;2024-03-23T01:56:32;19.53;;;9.90;;
8652;SDS011;4364;52.426;9.424;2024-03-23T01:59:01;19.77;;;10.03;;
8652;SDS011;4364;52.426;9.424;2024-03-23T02:01:27;24.73;;;9.73;;
8652;SDS011;4364;52.426;9.424;2024-03-23T02:03:52;20.47;;;10.10;;
8652;SDS011;4364;52.426;9.424;2024-03-23T02:06:18;22.17;;;9.63;;
8652;SDS011;4364;52.426;9.424;2024-03-23T02:08:43;24.40;;;11.60;;
8652;SDS011;4364;52.426;9.424;2024-03-23T02:11:09;18.77;;;9.63;;
8652;SDS011;4364;52.426;9.424;2024-03-23T02:13:35;21.30;;;10.33;;
8652;SDS011;4364;52.426;9.424;2024-03-23T02:16:03;25.47;;;11.13;;
8652;SDS011;4364;52.426;9.424;2024-03-23T02:18:30;22.90;;;11.17;;
8652;SDS011;4364;52.426;9.424;2024-03-23T02:20:56;18.80;;;10.30;;
8652;SDS011;4364;52.426;9.424;2024-03-23T02:23:21;23.07;;;11.13;;
8652;SDS011;4364;52.426;9.424;2024-03-23T02:25:47;19.30;;;10.97;;
8652;SDS011;4364;52.426;9.424;2024-03-23T02:28:13;23.43;;;12.37;;
8652;SDS011;4364;52.426;9.424;2024-03-23T02:30:38;23.40;;;11.50;;
8652;SDS011;4364;52.426;9.424;2024-03-23T02:33:04;28.80;;;12.50;;
8652;SDS011;4364;52.426;9.424;2024-03-23T02:35:30;23.30;;;11.57;;
8652;SDS011;4364;52.426;9.424;2024-03-23T02:37:55;24.10;;;10.67;;
8652;SDS011;4364;52.426;9.424;2024-03-23T02:40:22;20.50;;;10.90;;
8652;SDS011;4364;52.426;9.424;2024-03-23T02:42:49;20.50;;;11.13;;
8652;SDS011;4364;52.426;9.424;2024-03-23T02:45:14;22.90;;;11.20;;
8652;SDS011;4364;52.426;9.424;2024-03-23T02:47:40;22.53;;;10.53;;
8652;SDS011;4364;52.426;9.424;2024-03-23T02:50:06;21.17;;;9.43;;
8652;SDS011;4364;52.426;9.424;2024-03-23T02:52:32;20.80;;;9.17;;
8652;SDS011;4364;52.426;9.424;2024-03-23T02:54:57;19.27;;;7.97;;
8652;SDS011;4364;52.426;9.424;2024-03-23T02:57:24;19.70;;;7.87;;
8652;SDS011;4364;52.426;9.424;2024-03-23T02:59:49;15.70;;;6.90;;
8652;SDS011;4364;52.426;9.424;2024-03-23T03:02:15;15.77;;;7.10;;
8652;SDS011;4364;52.426;9.424;2024-03-23T03:04:41;20.83;;;7.80;;
8652;SDS011;4364;52.426;9.424;2024-03-23T03:07:07;24.83;;;7.33;;
8652;SDS011;4364;52.426;9.424;2024-03-23T03:09:32;15.50;;;6.57;;
8652;SDS011;4364;52.426;9.424;2024-03-23T03:12:03;17.50;;;7.40;;
8652;SDS011;4364;52.426;9.424;2024-03-23T03:14:29;21.97;;;7.03;;
8652;SDS011;4364;52.426;9.424;2024-03-23T03:16:55;18.00;;;7.27;;
8652;SDS011;4364;52.426;9.424;2024-03-23T03:19:21;15.87;;;7.30;;
8652;SDS011;4364;52.426;9.424;2024-03-23T03:21:46;18.37;;;8.13;;
8652;SDS011;4364;52.426;9.424;2024-03-23T03:24:13;16.33;;;7.37;;
8652;SDS011;4364;52.426;9.424;2024-03-23T03:26:39;21.37;;;8.63;;
8652;SDS011;4364;52.426;9.424;2024-03-23T03:29:04;19.27;;;8.20;;
8652;SDS011;4364;52.426;9.424;2024-03-23T03:31:30;20.17;;;7.77;;
8652;SDS011;4364;52.426;9.424;2024-03-23T03:33:56;19.40;;;7.80;;
8652;SDS011;4364;52.426;9.424;2024-03-23T03:36:22;21.17;;;8.40;;
8652;SDS011;4364;52.426;9.424;2024-03-23T03:38:48;20.83;;;7.53;;
8652;SDS011;4364;52.426;9.424;2024-03-23T03:41:13;22.03;;;7.37;;
8652;SDS011;4364;52.426;9.424;2024-03-23T03:43:39;18.83;;;6.93;;
8652;SDS011;4364;52.426;9.424;2024-03-23T03:46:04;21.50;;;6.47;;
8652;SDS011;4364;52.426;9.424;2024-03-23T03:48:30;19.87;;;6.57;;
8652;SDS011;4364;52.426;9.424;2024-03-23T03:50:56;17.97;;;6.40;;
8652;SDS011;4364;52.426;9.424;2024-03-23T03:53:21;20.77;;;6.10;;
8652;SDS011;4364;52.426;9.424;2024-03-23T03:55:47;15.53;;;6.07;;
8652;SDS011;4364;52.426;9.424;2024-03-23T03:58:13;16.03;;;6.07;;
8652;SDS011;4364;52.426;9.424;2024-03-23T04:00:38;16.53;;;5.83;;
8652;SDS011;4364;52.426;9.424;2024-03-23T04:03:04;20.67;;;6.53;;
8652;SDS011;4364;52.426;9.424;2024-03-23T04:05:30;18.10;;;6.83;;
8652;SDS011;4364;52.426;9.424;2024-03-23T04:07:55;18.80;;;6.13;;
8652;SDS011;4364;52.426;9.424;2024-03-23T04:10:21;18.50;;;5.73;;
8652;SDS011;4364;52.426;9.424;2024-03-23T04:12:47;17.03;;;5.90;;
8652;SDS011;4364;52.426;9.424;2024-03-23T04:15:13;18.30;;;6.50;;
8652;SDS011;4364;52.426;9.424;2024-03-23T04:17:39;17.17;;;6.63;;
8652;SDS011;4364;52.426;9.424;2024-03-23T04:20:08;19.13;;;6.93;;
8652;SDS011;4364;52.426;9.424;2024-03-23T04:22:37;14.73;;;6.47;;
8652;SDS011;4364;52.426;9.424;2024-03-23T04:25:03;20.17;;;7.17;;
8652;SDS011;4364;52.426;9.424;2024-03-23T04:27:32;16.50;;;6.97;;
8652;SDS011;4364;52.426;9.424;2024-03-23T04:29:58;15.90;;;6.40;;
8652;SDS011;4364;52.426;9.424;2024-03-23T04:32:26;20.33;;;7.33;;
8652;SDS011;4364;52.426;9.424;2024-03-23T04:34:52;21.00;;;8.17;;
8652;SDS011;4364;52.426;9.424;2024-03-23T04:37:18;20.20;;;7.37;;
8652;SDS011;4364;52.426;9.424;2024-03-23T04:39:45;18.87;;;7.43;;
8652;SDS011;4364;52.426;9.424;2024-03-23T04:42:10;20.00;;;7.67;;
8652;SDS011;4364;52.426;9.424;2024-03-23T04:44:37;19.57;;;7.70;;
8652;SDS011;4364;52.426;9.424;2024-03-23T04:47:02;21.20;;;7.57;;
8652;SDS011;4364;52.426;9.424;2024-03-23T04:49:29;16.03;;;6.73;;
8652;SDS011;4364;52.426;9.424;2024-03-23T04:51:55;16.33;;;7.30;;
8652;SDS011;4364;52.426;9.424;2024-03-23T04:54:20;18.27;;;7.17;;
8652;SDS011;4364;52.426;9.424;2024-03-23T04:56:48;16.47;;;6.50;;
8652;SDS011;4364;52.426;9.424;2024-03-23T04:59:14;25.27;;;7.27;;
8652;SDS011;4364;52.426;9.424;2024-03-23T05:01:39;22.07;;;6.73;;
8652;SDS011;4364;52.426;9.424;2024-03-23T05:04:08;22.23;;;7.17;;
8652;SDS011;4364;52.426;9.424;2024-03-23T05:06:34;23.67;;;6.83;;
8652;SDS011;4364;52.426;9.424;2024-03-23T05:09:01;15.23;;;6.70;;
8652;SDS011;4364;52.426;9.424;2024-03-23T05:11:32;14.30;;;4.40;;
8652;SDS011;4364;52.426;9.424;2024-03-23T05:13:59;13.43;;;4.70;;
8652;SDS011;4364;52.426;9.424;2024-03-23T05:16:26;20.03;;;5.00;;
8652;SDS011;4364;52.426;9.424;2024-03-23T05:18:52;17.17;;;5.97;;
8652;SDS011;4364;52.426;9.424;2024-03-23T05:21:17;17.57;;;5.20;;
8652;SDS011;4364;52.426;9.424;2024-03-23T05:23:43;14.23;;;5.27;;
8652;SDS011;4364;52.426;9.424;2024-03-23T05:26:09;18.03;;;6.23;;
8652;SDS011;4364;52.426;9.424;2024-03-23T05:28:35;16.37;;;5.07;;
8652;SDS011;4364;52.426;9.424;2024-03-23T05:31:01;18.57;;;5.30;;
8652;SDS011;4364;52.426;9.424;2024-03-23T05:33:27;20.57;;;5.67;;
8652;SDS011;4364;52.426;9.424;2024-03-23T05:35:56;13.90;;;5.10;;
8652;SDS011;4364;52.426;9.424;2024-03-23T05:38:23;17.20;;;6.13;;
8652;SDS011;4364;52.426;9.424;2024-03-23T05:40:55;18.77;;;5.43;;
8652;SDS011;4364;52.426;9.424;2024-03-23T05:43:22;16.77;;;5.60;;
8652;SDS011;4364;52.426;9.424;2024-03-23T05:45:53;16.67;;;5.80;;
8652;SDS011;4364;52.426;9.424;2024-03-23T05:48:19;17.60;;;6.23;;
8652;SDS011;4364;52.426;9.424;2024-03-23T05:50:44;20.53;;;5.67;;
8652;SDS011;4364;52.426;9.424;2024-03-23T05:53:10;21.20;;;6.30;;
8652;SDS011;4364;52.426;9.424;2024-03-23T05:55:36;18.13;;;6.47;;
8652;SDS011;4364;52.426;9.424;2024-03-23T05:58:02;20.07;;;7.00;;
8652;SDS011;4364;52.426;9.424;2024-03-23T06:00:27;21.17;;;7.40;;
8652;SDS011;4364;52.426;9.424;2024-03-23T06:02:53;20.63;;;7.87;;
8652;SDS011;4364;52.426;9.424;2024-03-23T06:05:19;23.33;;;8.17;;
8652;SDS011;4364;52.426;9.424;2024-03-23T06:07:44;24.37;;;8.67;;
8652;SDS011;4364;52.426;9.424;2024-03-23T06:10:10;22.27;;;7.77;;
8652;SDS011;4364;52.426;9.424;2024-03-23T06:12:35;26.23;;;8.07;;
8652;SDS011;4364;52.426;9.424;2024-03-23T06:15:01;25.03;;;8.43;;
8652;SDS011;4364;52.426;9.424;2024-03-23T06:17:27;27.97;;;8.30;;
8652;SDS011;4364;52.426;9.424;2024-03-23T06:19:53;27.90;;;7.80;;
8652;SDS011;4364;52.426;9.424;2024-03-23T06:22:18;30.87;;;8.70;;
8652;SDS011;4364;52.426;9.424;2024-03-23T06:24:44;22.77;;;8.03;;
8652;SDS011;4364;52.426;9.424;2024-03-23T06:27:10;25.90;;;9.63;;
8652;SDS011;4364;52.426;9.424;2024-03-23T06:29:36;27.23;;;8.30;;
8652;SDS011;4364;52.426;9.424;2024-03-23T06:32:01;31.57;;;9.30;;
8652;SDS011;4364;52.426;9.424;2024-03-23T06:34:29;30.10;;;8.70;;
8652;SDS011;4364;52.426;9.424;2024-03-23T06:36:55;31.80;;;9.63;;
8652;SDS011;4364;52.426;9.424;2024-03-23T06:39:20;33.30;;;9.10;;
8652;SDS011;4364;52.426;9.424;2024-03-23T06:41:51;30.00;;;9.83;;
8652;SDS011;4364;52.426;9.424;2024-03-23T06:44:18;22.90;;;9.17;;
8652;SDS011;4364;52.426;9.424;2024-03-23T06:46:44;34.73;;;10.83;;
8652;SDS011;4364;52.426;9.424;2024-03-23T06:49:10;31.60;;;10.30;;
8652;SDS011;4364;52.426;9.424;2024-03-23T06:51:36;29.60;;;10.07;;
8652;SDS011;4364;52.426;9.424;2024-03-23T06:54:03;27.97;;;9.70;;
8652;SDS011;4364;52.426;9.424;2024-03-23T06:56:30;33.17;;;10.27;;
8652;SDS011;4364;52.426;9.424;2024-03-23T06:58:56;36.67;;;10.70;;
8652;SDS011;4364;52.426;9.424;2024-03-23T07:01:22;29.93;;;10.13;;
8652;SDS011;4364;52.426;9.424;2024-03-23T07:03:48;32.77;;;10.13;;
8652;SDS011;4364;52.426;9.424;2024-03-23T07:06:14;27.70;;;10.20;;
8652;SDS011;4364;52.426;9.424;2024-03-23T07:08:39;29.90;;;10.00;;
8652;SDS011;4364;52.426;9.424;2024-03-23T07:11:05;28.57;;;10.20;;
8652;SDS011;4364;52.426;9.424;2024-03-23T07:13:30;27.47;;;10.23;;
8652;SDS011;4364;52.426;9.424;2024-03-23T07:15:56;26.67;;;9.43;;
8652;SDS011;4364;52.426;9.424;2024-03-23T07:18:23;28.90;;;9.93;;
8652;SDS011;4364;52.426;9.424;2024-03-23T07:20:53;32.93;;;10.00;;
8652;SDS011;4364;52.426;9.424;2024-03-23T07:23:20;37.87;;;11.07;;
8652;SDS011;4364;52.426;9.424;2024-03-23T07:25:55;30.20;;;11.10;;
8652;SDS011;4364;52.426;9.424;2024-03-23T07:28:23;33.00;;;11.30;;
8652;SDS011;4364;52.426;9.424;2024-03-23T07:30:48;31.73;;;10.77;;
8652;SDS011;4364;52.426;9.424;2024-03-23T07:33:27;27.77;;;10.93;;
8652;SDS011;4364;52.426;9.424;2024-03-23T07:35:54;31.23;;;11.67;;
8652;SDS011;4364;52.426;9.424;2024-03-23T07:38:19;32.30;;;11.47;;
8652;SDS011;4364;52.426;9.424;2024-03-23T07:40:45;36.70;;;11.70;;
8652;SDS011;4364;52.426;9.424;2024-03-23T07:43:10;37.40;;;13.03;;
8652;SDS011;4364;52.426;9.424;2024-03-23T07:45:36;28.30;;;12.70;;
8652;SDS011;4364;52.426;9.424;2024-03-23T07:48:03;32.93;;;12.60;;
8652;SDS011;4364;52.426;9.424;2024-03-23T07:50:29;36.57;;;11.67;;
8652;SDS011;4364;52.426;9.424;2024-03-23T07:52:55;25.13;;;10.03;;
8652;SDS011;4364;52.426;9.424;2024-03-23T07:55:21;37.70;;;11.87;;
8652;SDS011;4364;52.426;9.424;2024-03-23T07:57:47;31.03;;;11.43;;
8652;SDS011;4364;52.426;9.424;2024-03-23T08:00:13;29.70;;;10.17;;
8652;SDS011;4364;52.426;9.424;2024-03-23T08:02:39;24.17;;;10.73;;
8652;SDS011;4364;52.426;9.424;2024-03-23T08:05:04;28.43;;;11.57;;
8652;SDS011;4364;52.426;9.424;2024-03-23T08:07:31;25.77;;;10.27;;
8652;SDS011;4364;52.426;9.424;2024-03-23T08:09:56;31.30;;;10.47;;
8652;SDS011;4364;52.426;9.424;2024-03-23T08:12:24;24.07;;;9.23;;
8652;SDS011;4364;52.426;9.424;2024-03-23T08:14:50;23.97;;;9.77;;
8652;SDS011;4364;52.426;9.424;2024-03-23T08:17:16;27.83;;;9.30;;
8652;SDS011;4364;52.426;9.424;2024-03-23T08:19:43;30.73;;;9.07;;
8652;SDS011;4364;52.426;9.424;2024-03-23T08:22:08;25.47;;;9.30;;
8652;SDS011;4364;52.426;9.424;2024-03-23T08:24:34;27.67;;;9.33;;
8652;SDS011;4364;52.426;9.424;2024-03-23T08:27:00;18.97;;;8.03;;
8652;SDS011;4364;52.426;9.424;2024-03-23T08:29:27;27.73;;;8.97;;
8652;SDS011;4364;52.426;9.424;2024-03-23T08:31:53;24.27;;;9.03;;
8652;SDS011;4364;52.426;9.424;2024-03-23T08:34:18;24.97;;;8.90;;
8652;SDS011;4364;52.426;9.424;2024-03-23T08:36:44;26.43;;;9.27;;
8652;SDS011;4364;52.426;9.424;2024-03-23T08:39:09;23.63;;;9.70;;
8652;SDS011;4364;52.426;9.424;2024-03-23T08:41:35;26.33;;;8.87;;
8652;SDS011;4364;52.426;9.424;2024-03-23T08:44:01;24.90;;;9.67;;
8652;SDS011;4364;52.426;9.424;2024-03-23T08:46:26;26.60;;;9.20;;
8652;SDS011;4364;52.426;9.424;2024-03-23T08:48:53;28.67;;;9.13;;
8652;SDS011;4364;52.426;9.424;2024-03-23T08:51:18;30.00;;;9.43;;
8652;SDS011;4364;52.426;9.424;2024-03-23T08:53:44;24.87;;;8.50;;
8652;SDS011;4364;52.426;9.424;2024-03-23T08:56:11;28.17;;;8.90;;
8652;SDS011;4364;52.426;9.424;2024-03-23T08:58:37;25.07;;;7.63;;
8652;SDS011;4364;52.426;9.424;2024-03-23T09:03:33;19.80;;;7.97;;
8652;SDS011;4364;52.426;9.424;2024-03-23T09:06:00;23.50;;;7.50;;
8652;SDS011;4364;52.426;9.424;2024-03-23T09:08:27;22.07;;;6.97;;
8652;SDS011;4364;52.426;9.424;2024-03-23T09:10:54;26.73;;;7.13;;
8652;SDS011;4364;52.426;9.424;2024-03-23T09:13:20;18.30;;;6.13;;
8652;SDS011;4364;52.426;9.424;2024-03-23T09:15:46;20.00;;;6.00;;
8652;SDS011;4364;52.426;9.424;2024-03-23T09:18:15;19.47;;;5.80;;
8652;SDS011;4364;52.426;9.424;2024-03-23T09:20:40;20.47;;;5.80;;
8652;SDS011;4364;52.426;9.424;2024-03-23T09:23:06;18.97;;;6.10;;
8652;SDS011;4364;52.426;9.424;2024-03-23T09:25:32;17.10;;;5.60;;
8652;SDS011;4364;52.426;9.424;2024-03-23T09:28:02;16.00;;;4.70;;
8652;SDS011;4364;52.426;9.424;2024-03-23T09:30:28;13.87;;;5.00;;
8652;SDS011;4364;52.426;9.424;2024-03-23T09:32:53;20.23;;;4.60;;
8652;SDS011;4364;52.426;9.424;2024-03-23T09:35:19;14.33;;;4.07;;
8652;SDS011;4364;52.426;9.424;2024-03-23T09:37:45;13.27;;;3.73;;
8652;SDS011;4364;52.426;9.424;2024-03-23T09:40:10;9.43;;;3.60;;
8652;SDS011;4364;52.426;9.424;2024-03-23T09:42:37;13.97;;;3.97;;
8652;SDS011;4364;52.426;9.424;2024-03-23T09:45:06;11.93;;;3.40;;
8652;SDS011;4364;52.426;9.424;2024-03-23T09:47:36;13.93;;;4.07;;
8652;SDS011;4364;52.426;9.424;2024-03-23T09:50:02;12.57;;;3.80;;
8652;SDS011;4364;52.426;9.424;2024-03-23T09:52:30;12.60;;;3.40;;
8652;SDS011;4364;52.426;9.424;2024-03-23T09:54:55;11.20;;;2.87;;
8652;SDS011;4364;52.426;9.424;2024-03-23T09:57:22;11.40;;;3.40;;
8652;SDS011;4364;52.426;9.424;2024-03-23T09:59:49;10.90;;;3.00;;
8652;SDS011;4364;52.426;9.424;2024-03-23T10:02:15;12.03;;;3.33;;
8652;SDS011;4364;52.426;9.424;2024-03-23T10:04:42;13.30;;;3.40;;
8652;SDS011;4364;52.426;9.424;2024-03-23T10:07:13;8.80;;;3.07;;
8652;SDS011;4364;52.426;9.424;2024-03-23T10:09:39;11.60;;;3.37;;
8652;SDS011;4364;52.426;9.424;2024-03-23T10:12:11;11.27;;;3.43;;
8652;SDS011;4364;52.426;9.424;2024-03-23T10:14:40;14.50;;;4.00;;
8652;SDS011;4364;52.426;9.424;2024-03-23T10:17:17;11.20;;;3.67;;
8652;SDS011;4364;52.426;9.424;2024-03-23T10:19:51;11.10;;;3.50;;
8652;SDS011;4364;52.426;9.424;2024-03-23T10:22:19;10.53;;;3.60;;
8652;SDS011;4364;52.426;9.424;2024-03-23T10:24:45;9.23;;;3.10;;
8652;SDS011;4364;52.426;9.424;2024-03-23T10:27:21;10.97;;;3.37;;
8652;SDS011;4364;52.426;9.424;2024-03-23T10:29:47;9.90;;;3.93;;
8652;SDS011;4364;52.426;9.424;2024-03-23T10:32:15;9.10;;;3.63;;
8652;SDS011;4364;52.426;9.424;2024-03-23T10:34:44;8.67;;;3.63;;
8652;SDS011;4364;52.426;9.424;2024-03-23T10:37:10;10.60;;;3.30;;
8652;SDS011;4364;52.426;9.424;2024-03-23T10:39:37;7.33;;;3.03;;
8652;SDS011;4364;52.426;9.424;2024-03-23T10:42:08;4.53;;;2.50;;
8652;SDS011;4364;52.426;9.424;2024-03-23T10:44:37;6.67;;;2.50;;
8652;SDS011;4364;52.426;9.424;2024-03-23T10:47:04;4.70;;;2.53;;
8652;SDS011;4364;52.426;9.424;2024-03-23T10:49:34;7.50;;;2.77;;
8652;SDS011;4364;52.426;9.424;2024-03-23T10:54:30;8.13;;;2.83;;
8652;SDS011;4364;52.426;9.424;2024-03-23T10:56:59;6.27;;;3.07;;
8652;SDS011;4364;52.426;9.424;2024-03-23T10:59:29;9.47;;;2.90;;
8652;SDS011;4364;52.426;9.424;2024-03-23T11:01:57;7.40;;;3.13;;
8652;SDS011;4364;52.426;9.424;2024-03-23T11:04:33;7.27;;;2.77;;
8652;SDS011;4364;52.426;9.424;2024-03-23T11:07:00;6.23;;;2.80;;
8652;SDS011;4364;52.426;9.424;2024-03-23T11:09:39;6.03;;;3.07;;
8652;SDS011;4364;52.426;9.424;2024-03-23T11:14:47;7.40;;;2.90;;
8652;SDS011;4364;52.426;9.424;2024-03-23T11:17:17;6.10;;;3.20;;
8652;SDS011;4364;52.426;9.424;2024-03-23T11:19:44;9.77;;;3.37;;
8652;SDS011;4364;52.426;9.424;2024-03-23T11:22:09;7.80;;;3.63;;
8652;SDS011;4364;52.426;9.424;2024-03-23T11:24:35;12.37;;;3.97;;
8652;SDS011;4364;52.426;9.424;2024-03-23T11:27:01;6.00;;;2.37;;
8652;SDS011;4364;52.426;9.424;2024-03-23T11:29:29;3.77;;;1.53;;
8652;SDS011;4364;52.426;9.424;2024-03-23T11:31:55;2.27;;;1.30;;
8652;SDS011;4364;52.426;9.424;2024-03-23T11:34:21;3.60;;;1.37;;
8652;SDS011;4364;52.426;9.424;2024-03-23T11:36:47;1.83;;;1.33;;
8652;SDS011;4364;52.426;9.424;2024-03-23T11:39:14;4.53;;;1.60;;
8652;SDS011;4364;52.426;9.424;2024-03-23T11:41:50;2.70;;;1.40;;
8652;SDS011;4364;52.426;9.424;2024-03-23T11:44:17;2.60;;;1.43;;
8652;SDS011;4364;52.426;9.424;2024-03-23T11:46:50;3.17;;;1.50;;
8652;SDS011;4364;52.426;9.424;2024-03-23T11:49:24;5.20;;;1.70;;
8652;SDS011;4364;52.426;9.424;2024-03-23T11:51:51;4.00;;;1.30;;
8652;SDS011;4364;52.426;9.424;2024-03-23T11:54:25;2.27;;;1.30;;
8652;SDS011;4364;52.426;9.424;2024-03-23T11:59:34;2.87;;;1.50;;
8652;SDS011;4364;52.426;9.424;2024-03-23T12:02:10;5.07;;;1.63;;
8652;SDS011;4364;52.426;9.424;2024-03-23T12:04:39;3.37;;;1.73;;
8652;SDS011;4364;52.426;9.424;2024-03-23T12:07:09;2.97;;;1.50;;
8652;SDS011;4364;52.426;9.424;2024-03-23T12:09:37;3.87;;;2.10;;
8652;SDS011;4364;52.426;9.424;2024-03-23T12:14:38;4.77;;;2.57;;
8652;SDS011;4364;52.426;9.424;2024-03-23T12:17:08;5.47;;;2.40;;
8652;SDS011;4364;52.426;9.424;2024-03-23T12:19:41;5.87;;;2.60;;
8652;SDS011;4364;52.426;9.424;2024-03-23T12:22:08;8.03;;;2.70;;
8652;SDS011;4364;52.426;9.424;2024-03-23T12:24:34;4.83;;;2.60;;
8652;SDS011;4364;52.426;9.424;2024-03-23T12:27:04;6.47;;;2.60;;
8652;SDS011;4364;52.426;9.424;2024-03-23T12:29:33;5.87;;;2.40;;
8652;SDS011;4364;52.426;9.424;2024-03-23T12:32:01;6.10;;;2.60;;
8652;SDS011;4364;52.426;9.424;2024-03-23T12:34:28;4.13;;;2.37;;
8652;SDS011;4364;52.426;9.424;2024-03-23T12:36:56;4.33;;;2.10;;
8652;SDS011;4364;52.426;9.424;2024-03-23T12:39:22;7.07;;;2.40;;
8652;SDS011;4364;52.426;9.424;2024-03-23T12:41:48;4.20;;;1.70;;
8652;SDS011;4364;52.426;9.424;2024-03-23T12:44:14;3.23;;;1.70;;
8652;SDS011;4364;52.426;9.424;2024-03-23T12:46:40;4.07;;;1.53;;
8652;SDS011;4364;52.426;9.424;2024-03-23T12:49:07;3.90;;;1.67;;
8652;SDS011;4364;52.426;9.424;2024-03-23T12:51:33;3.67;;;2.00;;
8652;SDS011;4364;52.426;9.424;2024-03-23T12:53:59;3.27;;;2.13;;
8652;SDS011;4364;52.426;9.424;2024-03-23T12:56:24;5.47;;;2.53;;
8652;SDS011;4364;52.426;9.424;2024-03-23T12:58:52;4.77;;;2.30;;
8652;SDS011;4364;52.426;9.424;2024-03-23T13:01:21;5.50;;;2.20;;
8652;SDS011;4364;52.426;9.424;2024-03-23T13:03:47;4.93;;;2.23;;
8652;SDS011;4364;52.426;9.424;2024-03-23T13:06:13;4.77;;;2.10;;
8652;SDS011;4364;52.426;9.424;2024-03-23T13:08:39;4.43;;;2.13;;
8652;SDS011;4364;52.426;9.424;2024-03-23T13:11:07;4.97;;;2.50;;
8652;SDS011;4364;52.426;9.424;2024-03-23T13:13:34;2.33;;;2.03;;
8652;SDS011;4364;52.426;9.424;2024-03-23T13:16:00;4.17;;;2.30;;
8652;SDS011;4364;52.426;9.424;2024-03-23T13:18:26;6.07;;;2.00;;
8652;SDS011;4364;52.426;9.424;2024-03-23T13:20:51;3.47;;;2.20;;
8652;SDS011;4364;52.426;9.424;2024-03-23T13:23:17;4.10;;;2.07;;
8652;SDS011;4364;52.426;9.424;2024-03-23T13:25:52;5.20;;;1.97;;
8652;SDS011;4364;52.426;9.424;2024-03-23T13:28:19;3.30;;;1.90;;
8652;SDS011;4364;52.426;9.424;2024-03-23T13:30:52;5.20;;;2.23;;
8652;SDS011;4364;52.426;9.424;2024-03-23T13:33:19;5.00;;;2.27;;
8652;SDS011;4364;52.426;9.424;2024-03-23T13:35:49;9.27;;;2.50;;
8652;SDS011;4364;52.426;9.424;2024-03-23T13:38:17;3.80;;;2.20;;
8652;SDS011;4364;52.426;9.424;2024-03-23T13:43:25;6.27;;;2.30;;
8652;SDS011;4364;52.426;9.424;2024-03-23T13:45:56;6.00;;;2.20;;
8652;SDS011;4364;52.426;9.424;2024-03-23T13:48:25;5.43;;;2.43;;
8652;SDS011;4364;52.426;9.424;2024-03-23T13:51:04;5.20;;;2.53;;
8652;SDS011;4364;52.426;9.424;2024-03-23T13:53:30;7.57;;;2.43;;
8652;SDS011;4364;52.426;9.424;2024-03-23T13:55:57;6.17;;;2.10;;
8652;SDS011;4364;52.426;9.424;2024-03-23T13:58:23;4.83;;;2.20;;
8652;SDS011;4364;52.426;9.424;2024-03-23T14:00:52;8.37;;;2.30;;
8652;SDS011;4364;52.426;9.424;2024-03-23T14:03:17;5.37;;;2.17;;
8652;SDS011;4364;52.426;9.424;2024-03-23T14:05:46;5.10;;;2.10;;
8652;SDS011;4364;52.426;9.424;2024-03-23T14:08:14;5.17;;;1.90;;
8652;SDS011;4364;52.426;9.424;2024-03-23T14:10:41;3.33;;;1.87;;
8652;SDS011;4364;52.426;9.424;2024-03-23T14:13:07;3.77;;;1.40;;
8652;SDS011;4364;52.426;9.424;2024-03-23T14:15:34;3.20;;;1.30;;
8652;SDS011;4364;52.426;9.424;2024-03-23T14:18:02;1.77;;;1.10;;
8652;SDS011;4364;52.426;9.424;2024-03-23T14:20:29;4.07;;;1.87;;
8652;SDS011;4364;52.426;9.424;2024-03-23T14:22:55;4.40;;;1.77;;
8652;SDS011;4364;52.426;9.424;2024-03-23T14:25:21;3.13;;;1.50;;
8652;SDS011;4364;52.426;9.424;2024-03-23T14:27:49;2.70;;;1.20;;
8652;SDS011;4364;52.426;9.424;2024-03-23T14:30:14;4.07;;;1.00;;
8652;SDS011;4364;52.426;9.424;2024-03-23T14:32:40;2.13;;;1.07;;
8652;SDS011;4364;52.426;9.424;2024-03-23T14:35:06;1.67;;;1.00;;
8652;SDS011;4364;52.426;9.424;2024-03-23T14:37:34;2.03;;;1.20;;
8652;SDS011;4364;52.426;9.424;2024-03-23T14:40:00;1.20;;;1.03;;
8652;SDS011;4364;52.426;9.424;2024-03-23T14:42:26;2.00;;;1.00;;
8652;SDS011;4364;52.426;9.424;2024-03-23T14:44:51;2.17;;;1.00;;
8652;SDS011;4364;52.426;9.424;2024-03-23T14:47:18;2.50;;;1.03;;
8652;SDS011;4364;52.426;9.424;2024-03-23T14:49:45;1.67;;;1.23;;
8652;SDS011;4364;52.426;9.424;2024-03-23T14:52:19;2.43;;;1.20;;
8652;SDS011;4364;52.426;9.424;2024-03-23T14:54:45;1.93;;;1.03;;
8652;SDS011;4364;52.426;9.424;2024-03-23T14:57:12;3.43;;;1.20;;
8652;SDS011;4364;52.426;9.424;2024-03-23T14:59:38;2.03;;;0.97;;
8652;SDS011;4364;52.426;9.424;2024-03-23T15:02:07;1.93;;;1.10;;
8652;SDS011;4364;52.426;9.424;2024-03-23T15:04:34;2.27;;;0.93;;
8652;SDS011;4364;52.426;9.424;2024-03-23T15:07:01;2.23;;;1.30;;
8652;SDS011;4364;52.426;9.424;2024-03-23T15:09:27;7.13;;;2.90;;
8652;SDS011;4364;52.426;9.424;2024-03-23T15:11:52;6.17;;;3.03;;
8652;SDS011;4364;52.426;9.424;2024-03-23T15:14:20;6.07;;;2.90;;
8652;SDS011;4364;52.426;9.424;2024-03-23T15:16:45;5.37;;;2.70;;
8652;SDS011;4364;52.426;9.424;2024-03-23T15:19:14;5.90;;;2.00;;
8652;SDS011;4364;52.426;9.424;2024-03-23T15:21:40;5.73;;;1.90;;
8652;SDS011;4364;52.426;9.424;2024-03-23T15:24:06;3.67;;;1.60;;
8652;SDS011;4364;52.426;9.424;2024-03-23T15:26:32;5.13;;;1.80;;
8652;SDS011;4364;52.426;9.424;2024-03-23T15:28:58;2.43;;;1.70;;
8652;SDS011;4364;52.426;9.424;2024-03-23T15:31:24;2.63;;;1.50;;
8652;SDS011;4364;52.426;9.424;2024-03-23T15:33:50;6.13;;;1.80;;
8652;SDS011;4364;52.426;9.424;2024-03-23T15:36:16;3.57;;;1.50;;
8652;SDS011;4364;52.426;9.424;2024-03-23T15:38:43;3.10;;;1.47;;
8652;SDS011;4364;52.426;9.424;2024-03-23T15:41:10;3.40;;;1.40;;
8652;SDS011;4364;52.426;9.424;2024-03-23T15:43:35;2.20;;;1.50;;
8652;SDS011;4364;52.426;9.424;2024-03-23T15:46:03;3.83;;;1.63;;
8652;SDS011;4364;52.426;9.424;2024-03-23T15:48:31;3.87;;;1.63;;
8652;SDS011;4364;52.426;9.424;2024-03-23T15:51:02;3.77;;;1.90;;
8652;SDS011;4364;52.426;9.424;2024-03-23T15:53:31;6.70;;;4.90;;
8652;SDS011;4364;52.426;9.424;2024-03-23T15:55:58;13.87;;;12.37;;
8652;SDS011;4364;52.426;9.424;2024-03-23T15:58:27;6.17;;;3.20;;
8652;SDS011;4364;52.426;9.424;2024-03-23T16:00:55;6.27;;;2.80;;
8652;SDS011;4364;52.426;9.424;2024-03-23T16:03:22;3.73;;;1.70;;
8652;SDS011;4364;52.426;9.424;2024-03-23T16:05:51;3.37;;;1.60;;
8652;SDS011;4364;52.426;9.424;2024-03-23T16:08:17;4.80;;;1.87;;
8652;SDS011;4364;52.426;9.424;2024-03-23T16:10:43;3.50;;;1.60;;